Time;durP1;ratioP1;P1;durP2;ratioP2;P2;SDS_P1;SDS_P2;PMS_P1;PMS_P2;Temp;Humidity;BMP_temperature;BMP_pressure;BME280_temperature;BME280_humidity;BME280_pressure;Samples;Min_cycle;Max_cycle;Signal;HPM_P1;HPM_P2
2022/01/31 00:00:18;;;;;;;24.17;8.10;;;;;;;3.12;86.13;101604.38;5035091;28;20044;-79
2022/01/31 00:02:46;;;;;;;21.30;7.88;;;;;;;3.08;86.27;101592.28;5032839;28;20018;-79
2022/01/31 00:05:12;;;;;;;21.63;7.97;;;;;;;3.13;86.56;101564.88;5031005;28;20030;-79
2022/01/31 00:07:38;;;;;;;21.10;7.50;;;;;;;3.13;86.36;101536.53;5043081;28;20075;-79
2022/01/31 00:10:08;;;;;;;20.50;7.43;;;;;;;3.20;86.42;101525.50;5031750;28;20026;-79
2022/01/31 00:15:18;;;;;;;18.65;7.32;;;;;;;3.22;86.11;101498.94;5048941;28;20465;-79
2022/01/31 00:17:43;;;;;;;25.60;8.05;;;;;;;3.22;86.13;101486.03;5030595;28;20136;-79
2022/01/31 00:20:08;;;;;;;28.60;7.18;;;;;;;3.27;86.21;101501.59;5031248;28;20480;-79
2022/01/31 00:22:34;;;;;;;19.70;7.82;;;;;;;3.25;86.29;101483.53;5042975;28;20037;-78
2022/01/31 00:24:59;;;;;;;26.77;8.07;;;;;;;3.29;86.38;101474.13;5050186;28;20041;-79
2022/01/31 00:27:24;;;;;;;16.50;7.90;;;;;;;3.35;86.82;101469.06;5030887;28;20384;-79
2022/01/31 00:29:50;;;;;;;21.48;7.47;;;;;;;3.37;86.07;101458.78;5037540;28;20037;-79
2022/01/31 00:32:15;;;;;;;24.67;7.10;;;;;;;3.36;86.63;101450.19;5035395;28;20055;-79
2022/01/31 00:34:40;;;;;;;19.92;7.15;;;;;;;3.36;87.01;101439.88;5036119;28;20415;-79
2022/01/31 00:37:05;;;;;;;20.30;6.55;;;;;;;3.35;87.63;101429.56;5053839;28;20029;-79
2022/01/31 00:39:34;;;;;;;20.65;7.45;;;;;;;3.31;88.08;101402.00;5049551;28;20032;-79
2022/01/31 00:42:00;;;;;;;20.08;7.20;;;;;;;3.32;88.74;101408.88;5053902;28;20392;-79
2022/01/31 00:44:30;;;;;;;23.27;7.70;;;;;;;3.27;89.05;101393.38;5040876;28;20049;-79
2022/01/31 00:47:04;;;;;;;23.98;7.32;;;;;;;3.23;90.29;101376.09;5053875;28;20446;-80
2022/01/31 00:51:57;;;;;;;24.65;7.15;;;;;;;3.06;93.73;101360.38;5038840;28;20037;-79
2022/01/31 00:54:22;;;;;;;26.02;7.95;;;;;;;2.95;94.72;101349.94;5053249;28;20515;-79
2022/01/31 00:56:52;;;;;;;26.02;8.25;;;;;;;2.94;96.86;101355.03;5041969;28;20032;-80
2022/01/31 00:59:17;;;;;;;23.23;7.32;;;;;;;2.85;97.76;101326.59;5034177;28;20037;-79
2022/01/31 01:01:43;;;;;;;25.88;8.80;;;;;;;2.82;99.53;101327.41;5033764;28;20036;-79
2022/01/31 01:04:08;;;;;;;24.40;8.63;;;;;;;2.76;99.42;101306.69;5034247;28;20028;-79
2022/01/31 01:06:33;;;;;;;24.33;8.60;;;;;;;2.73;100.00;101291.19;5039758;28;20021;-79
2022/01/31 01:08:59;;;;;;;26.90;9.00;;;;;;;2.74;100.00;101300.66;5051577;28;20033;-79
2022/01/31 01:11:24;;;;;;;21.15;8.40;;;;;;;2.75;100.00;101294.69;5052782;28;20503;-80
2022/01/31 01:13:49;;;;;;;26.02;8.93;;;;;;;2.76;100.00;101289.53;5050582;28;20402;-79
2022/01/31 01:16:15;;;;;;;21.20;7.90;;;;;;;2.68;100.00;101261.94;5052009;28;20460;-79
2022/01/31 01:18:40;;;;;;;20.83;8.60;;;;;;;2.72;100.00;101253.44;5041607;28;20030;-80
2022/01/31 01:21:05;;;;;;;33.97;9.52;;;;;;;2.79;100.00;101256.13;5033284;28;20397;-80
2022/01/31 01:23:31;;;;;;;27.77;8.90;;;;;;;2.81;100.00;101243.25;5033566;28;20079;-80
2022/01/31 01:25:56;;;;;;;28.27;9.40;;;;;;;2.79;100.00;101232.06;5038066;28;20025;-81
2022/01/31 01:28:23;;;;;;;23.80;9.20;;;;;;;2.80;100.00;101231.22;5053022;28;20033;-80
2022/01/31 01:30:49;;;;;;;20.83;9.63;;;;;;;2.80;100.00;101214.06;5053308;28;20074;-80
2022/01/31 01:33:20;;;;;;;27.05;9.85;;;;;;;2.78;100.00;101214.91;5045714;28;20053;-80
2022/01/31 01:35:48;;;;;;;33.20;9.68;;;;;;;2.80;100.00;101193.47;5034273;28;20033;-80
2022/01/31 01:38:16;;;;;;;31.52;10.52;;;;;;;2.83;100.00;101192.66;5033331;28;20436;-80
2022/01/31 01:40:43;;;;;;;39.10;11.48;;;;;;;2.80;100.00;101172.00;5043258;28;20029;-80
2022/01/31 01:43:08;;;;;;;33.67;10.15;;;;;;;2.83;100.00;101179.75;5037870;28;20459;-80
2022/01/31 01:45:34;;;;;;;38.72;11.18;;;;;;;2.86;100.00;101184.09;5046518;28;20040;-80
2022/01/31 01:48:00;;;;;;;33.67;12.27;;;;;;;2.88;100.00;101167.84;5053241;28;20135;-80
2022/01/31 01:50:25;;;;;;;32.03;10.73;;;;;;;2.87;100.00;101160.94;5052245;28;20112;-80
2022/01/31 01:52:52;;;;;;;31.60;10.55;;;;;;;2.90;100.00;101134.34;5038851;28;20534;-80
2022/01/31 01:55:17;;;;;;;31.85;10.52;;;;;;;2.92;100.00;101122.38;5037365;28;20029;-80
2022/01/31 01:57:43;;;;;;;43.30;10.60;;;;;;;2.94;100.00;101110.38;5052223;28;20108;-80
2022/01/31 02:00:15;;;;;;;34.45;11.85;;;;;;;2.98;100.00;101100.13;5041577;28;20041;-80
2022/01/31 02:02:44;;;;;;;30.95;10.80;;;;;;;3.00;100.00;101093.28;5044596;28;20060;-80
2022/01/31 02:05:10;;;;;;;33.20;10.38;;;;;;;3.02;100.00;101083.88;5049917;28;20045;-80
2022/01/31 02:07:36;;;;;;;33.13;9.88;;;;;;;3.05;100.00;101077.88;5033760;28;20071;-80
2022/01/31 02:10:04;;;;;;;28.27;9.77;;;;;;;3.07;100.00;101071.03;5050323;28;20028;-80
2022/01/31 02:12:48;;;;;;;32.38;11.18;;;;;;;3.12;100.00;101076.25;5045780;28;20025;-80
2022/01/31 02:15:14;;;;;;;32.75;12.60;;;;;;;3.13;100.00;101065.06;5034371;28;20025;-80
2022/01/31 02:17:40;;;;;;;31.80;10.32;;;;;;;3.14;100.00;101064.22;5031979;28;20056;-80
2022/01/31 02:20:08;;;;;;;28.00;10.38;;;;;;;3.15;100.00;101046.22;5032896;28;20053;-80
2022/01/31 02:22:35;;;;;;;30.85;10.55;;;;;;;3.16;100.00;101036.78;5033047;28;20396;-80
2022/01/31 02:25:01;;;;;;;22.55;10.20;;;;;;;3.21;100.00;101041.13;5032187;28;20068;-80
2022/01/31 02:27:32;;;;;;;30.05;9.85;;;;;;;3.20;100.00;101036.81;5033902;28;20427;-80
2022/01/31 02:29:57;;;;;;;25.38;11.32;;;;;;;3.23;100.00;101036.84;5041117;28;20029;-80
2022/01/31 02:32:23;;;;;;;27.58;12.13;;;;;;;3.27;100.00;101042.91;5033213;28;20376;-80
2022/01/31 02:34:50;;;;;;;29.58;10.93;;;;;;;3.28;100.00;101044.63;5032288;28;20032;-80
2022/01/31 02:37:16;;;;;;;28.23;10.75;;;;;;;3.31;100.00;101029.19;5044703;28;20025;-80
2022/01/31 02:39:41;;;;;;;29.65;10.65;;;;;;;3.32;100.00;101033.50;5051607;28;20384;-80
2022/01/31 02:42:07;;;;;;;21.33;9.80;;;;;;;3.39;100.00;101029.25;5043214;28;20028;-80
2022/01/31 02:44:32;;;;;;;23.77;11.13;;;;;;;3.40;100.00;101024.13;5043872;28;20043;-80
2022/01/31 02:46:58;;;;;;;32.28;13.50;;;;;;;3.44;100.00;100992.38;5042451;28;20117;-80
2022/01/31 02:49:28;;;;;;;25.23;11.40;;;;;;;3.47;100.00;100994.13;5051244;28;20033;-80
2022/01/31 02:51:57;;;;;;;28.55;11.52;;;;;;;3.43;100.00;100985.50;5051493;28;20029;-81
2022/01/31 02:54:24;;;;;;;31.85;14.00;;;;;;;3.56;100.00;100993.31;5051261;28;20029;-80
2022/01/31 02:56:49;;;;;;;27.15;13.48;;;;;;;3.56;100.00;100977.84;5051783;28;20036;-80
2022/01/31 02:59:15;;;;;;;29.20;12.48;;;;;;;3.63;100.00;100985.66;5034274;28;20033;-80
2022/01/31 03:01:40;;;;;;;32.78;13.25;;;;;;;3.68;100.00;100975.38;5032005;28;20029;-80
2022/01/31 03:04:07;;;;;;;32.88;12.85;;;;;;;3.73;100.00;100976.28;5032420;28;20435;-80
2022/01/31 03:06:33;;;;;;;33.45;13.32;;;;;;;3.78;100.00;100968.53;5031375;28;20036;-80
2022/01/31 03:08:58;;;;;;;25.83;13.10;;;;;;;3.80;100.00;100974.59;5042266;28;20033;-80
2022/01/31 03:11:23;;;;;;;27.73;13.05;;;;;;;3.82;100.00;100981.47;5049820;28;20025;-80
2022/01/31 03:13:49;;;;;;;27.35;12.10;;;;;;;3.88;100.00;100993.53;5045198;28;20035;-80
2022/01/31 03:16:14;;;;;;;34.60;13.57;;;;;;;3.92;100.00;100987.53;5031928;28;20029;-80
2022/01/31 03:18:39;;;;;;;26.65;11.40;;;;;;;3.95;100.00;100974.66;5045205;28;20052;-80
2022/01/31 03:21:04;;;;;;;31.25;11.75;;;;;;;3.96;100.00;100969.53;5050494;28;20040;-80
2022/01/31 03:23:30;;;;;;;32.63;10.68;;;;;;;3.98;100.00;100966.94;5035208;28;20029;-80
2022/01/31 03:25:55;;;;;;;33.17;11.90;;;;;;;3.96;100.00;100943.72;5051945;28;20028;-80
2022/01/31 03:28:21;;;;;;;35.95;11.60;;;;;;;4.02;100.00;100948.03;5041539;28;20036;-80
2022/01/31 03:30:46;;;;;;;34.65;9.95;;;;;;;4.00;100.00;100952.34;5051480;28;20032;-80
2022/01/31 03:33:11;;;;;;;31.38;10.50;;;;;;;4.02;100.00;100957.50;5034975;28;20034;-80
2022/01/31 03:35:36;;;;;;;29.42;10.25;;;;;;;3.98;100.00;100948.88;5030976;28;20392;-81
2022/01/31 03:38:02;;;;;;;29.60;8.82;;;;;;;4.04;100.00;100950.66;5047766;28;20025;-81
2022/01/31 03:40:27;;;;;;;26.17;9.07;;;;;;;4.03;100.00;100944.63;5049803;28;20610;-80
2022/01/31 03:42:53;;;;;;;23.67;9.07;;;;;;;3.99;100.00;100943.75;5050034;28;20037;-80
2022/01/31 03:45:19;;;;;;;23.52;8.40;;;;;;;4.03;100.00;100936.88;5050848;28;20053;-80
2022/01/31 03:47:46;;;;;;;31.05;8.48;;;;;;;4.01;100.00;100924.84;5050691;28;20033;-80
2022/01/31 03:50:13;;;;;;;27.83;8.02;;;;;;;4.04;100.00;100925.69;5050049;28;20029;-81
2022/01/31 03:52:38;;;;;;;34.15;8.75;;;;;;;4.07;100.00;100927.44;5050524;28;20050;-81
2022/01/31 03:55:05;;;;;;;29.48;6.93;;;;;;;4.09;100.00;100928.31;5051680;28;20115;-80
2022/01/31 03:57:31;;;;;;;26.90;6.80;;;;;;;4.12;100.00;100924.03;5038035;28;20025;-80
2022/01/31 03:59:56;;;;;;;24.83;6.32;;;;;;;4.14;100.00;100921.44;5031455;28;20029;-80
2022/01/31 04:02:22;;;;;;;24.85;6.22;;;;;;;4.18;100.00;100931.78;5031676;28;20123;-80
2022/01/31 04:04:47;;;;;;;23.73;5.88;;;;;;;4.20;100.00;100936.97;5037762;28;20024;-80
2022/01/31 04:07:12;;;;;;;19.42;5.00;;;;;;;4.16;100.00;100930.94;5054692;28;20029;-81
2022/01/31 04:09:37;;;;;;;22.48;5.30;;;;;;;4.17;100.00;100939.53;5048170;28;20439;-81
2022/01/31 04:12:03;;;;;;;24.73;5.50;;;;;;;4.16;100.00;100938.66;5040195;28;20042;-80
2022/01/31 04:14:28;;;;;;;15.68;3.97;;;;;;;4.16;100.00;100932.66;5051177;28;20044;-80
2022/01/31 04:16:56;;;;;;;30.25;4.40;;;;;;;4.15;100.00;100936.06;5054489;28;20068;-80
2022/01/31 04:19:22;;;;;;;19.35;4.22;;;;;;;4.15;100.00;100928.31;5053979;28;20068;-80
2022/01/31 04:21:48;;;;;;;21.45;3.88;;;;;;;4.15;100.00;100930.91;5054334;28;20036;-80
2022/01/31 04:24:19;;;;;;;26.77;3.83;;;;;;;4.13;100.00;100923.16;5053459;28;20029;-80
2022/01/31 04:26:55;;;;;;;18.20;3.80;;;;;;;4.06;100.00;100905.94;5054842;28;20039;-80
2022/01/31 04:29:20;;;;;;;15.88;3.22;;;;;;;4.14;100.00;100918.88;5036019;28;20044;-80
2022/01/31 04:31:49;;;;;;;20.90;3.85;;;;;;;4.10;100.00;100917.13;5034170;28;20033;-80
2022/01/31 04:34:14;;;;;;;21.00;3.03;;;;;;;4.11;100.00;100911.09;5034913;28;20050;-80
2022/01/31 04:36:40;;;;;;;19.90;2.90;;;;;;;4.14;100.00;100911.13;5034536;28;20033;-80
2022/01/31 04:39:05;;;;;;;19.92;3.63;;;;;;;4.09;100.00;100907.69;5034179;28;20040;-80
2022/01/31 04:41:30;;;;;;;20.77;3.50;;;;;;;4.12;100.00;100908.56;5034463;28;20033;-80
2022/01/31 04:44:01;;;;;;;23.80;3.40;;;;;;;4.14;100.00;100911.13;5046417;28;20036;-80
2022/01/31 04:46:26;;;;;;;19.90;3.45;;;;;;;4.10;100.00;100906.81;5039843;28;20033;-81
2022/01/31 04:48:51;;;;;;;15.68;3.20;;;;;;;4.08;100.00;100909.38;5054413;28;20473;-81
2022/01/31 04:51:17;;;;;;;20.83;3.55;;;;;;;4.11;100.00;100905.94;5054214;28;20029;-80
2022/01/31 04:53:42;;;;;;;20.13;3.20;;;;;;;4.09;100.00;100902.53;5047769;28;20026;-80
2022/01/31 04:56:07;;;;;;;20.42;3.63;;;;;;;4.06;100.00;100907.66;5033853;28;20060;-80
2022/01/31 04:58:33;;;;;;;18.08;3.50;;;;;;;4.05;100.00;100904.19;5034342;28;20047;-81
2022/01/31 05:00:59;;;;;;;18.52;3.92;;;;;;;3.99;100.00;100902.47;5033971;28;20026;-81
2022/01/31 05:03:25;;;;;;;14.13;3.03;;;;;;;4.03;100.00;100899.91;5043332;28;20029;-80
2022/01/31 05:05:50;;;;;;;23.75;3.92;;;;;;;3.97;100.00;100893.84;5053034;28;20397;-80
2022/01/31 05:08:17;;;;;;;17.48;2.90;;;;;;;4.05;100.00;100905.91;5049739;28;20031;-80
2022/01/31 05:10:45;;;;;;;14.95;2.83;;;;;;;4.03;100.00;100913.66;5051874;28;20377;-81
2022/01/31 05:13:12;;;;;;;18.15;3.03;;;;;;;3.97;100.00;100896.44;5041245;28;20029;-80
2022/01/31 05:15:38;;;;;;;15.40;3.00;;;;;;;3.98;100.00;100892.13;5039541;28;20029;-81
2022/01/31 05:18:03;;;;;;;17.13;3.20;;;;;;;3.96;100.00;100886.13;5036299;28;20033;-80
2022/01/31 05:20:28;;;;;;;15.93;2.83;;;;;;;3.97;100.00;100886.13;5052224;28;20051;-80
2022/01/31 05:22:54;;;;;;;15.88;2.63;;;;;;;3.95;100.00;100869.75;5053801;28;20036;-80
2022/01/31 05:25:19;;;;;;;19.27;3.33;;;;;;;3.92;100.00;100859.47;5052295;28;20037;-80
2022/01/31 05:27:44;;;;;;;23.75;3.30;;;;;;;3.98;100.00;100874.06;5051031;28;20065;-80
2022/01/31 05:30:10;;;;;;;26.42;3.22;;;;;;;3.94;100.00;100865.47;5053744;28;20029;-80
2022/01/31 05:32:36;;;;;;;17.52;2.95;;;;;;;3.99;100.00;100863.78;5052832;28;20108;-80
2022/01/31 05:35:04;;;;;;;14.15;2.30;;;;;;;4.01;100.00;100860.34;5051380;28;20047;-80
2022/01/31 05:37:30;;;;;;;25.73;3.92;;;;;;;3.96;100.00;100852.59;5036834;28;20038;-80
2022/01/31 05:39:55;;;;;;;18.55;2.90;;;;;;;3.96;100.00;100856.03;5033717;28;20075;-80
2022/01/31 05:42:20;;;;;;;19.92;2.85;;;;;;;3.93;100.00;100850.84;5033852;28;20041;-81
2022/01/31 05:44:47;;;;;;;20.17;3.47;;;;;;;3.86;100.00;100849.13;5033683;28;20392;-80
2022/01/31 05:47:16;;;;;;;14.13;3.28;;;;;;;3.78;100.00;100840.47;5033345;28;20025;-81
2022/01/31 05:49:42;;;;;;;14.55;3.47;;;;;;;3.81;100.00;100839.63;5032665;28;20029;-81
2022/01/31 05:52:08;;;;;;;18.05;2.75;;;;;;;3.77;100.00;100837.91;5033131;28;20040;-80
2022/01/31 05:54:36;;;;;;;15.88;3.10;;;;;;;3.75;100.00;100833.56;5033025;28;20057;-81
2022/01/31 05:57:02;;;;;;;28.75;4.25;;;;;;;3.70;100.00;100830.13;5042068;28;20115;-81
2022/01/31 05:59:28;;;;;;;16.95;2.88;;;;;;;3.67;100.00;100844.72;5050522;28;20043;-81
2022/01/31 06:01:53;;;;;;;28.95;3.45;;;;;;;3.62;100.00;100852.41;5053080;28;20104;-80
2022/01/31 06:04:19;;;;;;;21.60;3.53;;;;;;;3.63;100.00;100866.16;5050261;28;20040;-80
2022/01/31 06:06:44;;;;;;;23.65;4.10;;;;;;;3.58;100.00;100858.41;5051222;28;20048;-80
2022/01/31 06:09:09;;;;;;;29.13;3.47;;;;;;;3.55;100.00;100853.25;5041291;28;20037;-80
2022/01/31 06:11:35;;;;;;;22.63;4.60;;;;;;;3.52;100.00;100842.91;5039327;28;20535;-80
2022/01/31 06:14:02;;;;;;;15.70;3.65;;;;;;;3.48;100.00;100861.81;5051797;28;20035;-80
2022/01/31 06:16:28;;;;;;;19.80;3.05;;;;;;;3.46;100.00;100873.81;5049828;28;20039;-80
2022/01/31 06:18:54;;;;;;;21.08;3.25;;;;;;;3.44;100.00;100873.81;5051713;28;20079;-80
2022/01/31 06:21:19;;;;;;;24.00;3.53;;;;;;;3.45;100.00;100865.22;5052649;28;20033;-80
2022/01/31 06:23:45;;;;;;;20.88;3.38;;;;;;;3.42;100.00;100875.50;5041124;28;20068;-80
2022/01/31 06:26:10;;;;;;;23.02;3.67;;;;;;;3.42;100.00;100883.25;5032570;28;20022;-81
2022/01/31 06:28:36;;;;;;;20.60;3.80;;;;;;;3.40;100.00;100866.94;5035612;28;20396;-80
2022/01/31 06:31:01;;;;;;;24.98;3.75;;;;;;;3.37;100.00;100874.63;5051703;28;20365;-80
2022/01/31 06:33:27;;;;;;;17.40;3.35;;;;;;;3.37;100.00;100887.53;5050701;28;20040;-80
2022/01/31 06:35:52;;;;;;;23.77;4.63;;;;;;;3.35;100.00;100873.75;5049415;28;20033;-80
2022/01/31 06:38:18;;;;;;;19.10;4.00;;;;;;;3.34;100.00;100877.19;5031820;28;20469;-80
2022/01/31 06:40:43;;;;;;;23.42;3.45;;;;;;;3.30;100.00;100847.06;5036901;28;20032;-80
2022/01/31 06:43:09;;;;;;;17.05;3.50;;;;;;;3.29;100.00;100874.56;5051076;28;20021;-80
2022/01/31 06:45:34;;;;;;;23.63;4.10;;;;;;;3.26;100.00;100860.81;5039837;28;20083;-81
2022/01/31 06:47:59;;;;;;;15.85;3.85;;;;;;;3.21;100.00;100863.38;5032544;28;20041;-81
2022/01/31 06:50:25;;;;;;;20.23;3.83;;;;;;;3.25;100.00;100887.44;5049526;28;20053;-81
2022/01/31 06:52:55;;;;;;;26.10;3.83;;;;;;;3.20;100.00;100858.19;5050817;28;20040;-80
2022/01/31 06:55:21;;;;;;;18.30;4.18;;;;;;;3.22;100.00;100870.22;5052174;28;20106;-80
2022/01/31 06:57:51;;;;;;;20.08;3.85;;;;;;;3.19;100.00;100871.91;5051780;28;20029;-81
2022/01/31 07:00:18;;;;;;;26.58;4.47;;;;;;;3.19;100.00;100869.34;5050070;28;20159;-80
2022/01/31 07:02:45;;;;;;;22.48;4.50;;;;;;;3.18;100.00;100875.34;5032674;28;20079;-80
2022/01/31 07:05:10;;;;;;;19.83;3.83;;;;;;;3.15;100.00;100870.19;5032266;28;20030;-80
2022/01/31 07:07:35;;;;;;;27.48;3.72;;;;;;;3.16;100.00;100879.63;5032004;28;20095;-80
2022/01/31 07:10:02;;;;;;;29.75;3.97;;;;;;;3.14;100.00;100886.47;5036588;28;20025;-80
2022/01/31 07:12:35;;;;;;;23.88;3.80;;;;;;;3.09;100.00;100870.13;5032399;28;20055;-80
2022/01/31 07:15:01;;;;;;;31.35;3.72;;;;;;;3.14;100.00;100873.59;5033995;28;20053;-80
2022/01/31 07:17:26;;;;;;;19.42;4.18;;;;;;;3.13;100.00;100877.03;5031727;28;20105;-80
2022/01/31 07:19:53;;;;;;;29.20;4.03;;;;;;;3.13;100.00;100866.72;5038062;28;20430;-80
2022/01/31 07:22:19;;;;;;;21.90;3.70;;;;;;;3.13;100.00;100859.84;5051498;28;20036;-81
2022/01/31 07:24:48;;;;;;;19.05;3.78;;;;;;;3.10;100.00;100853.81;5051809;28;20235;-81
2022/01/31 07:27:14;;;;;;;24.35;3.90;;;;;;;3.10;100.00;100854.66;5049891;28;20025;-81
2022/01/31 07:29:39;;;;;;;25.38;4.22;;;;;;;3.13;100.00;100838.38;5041141;28;20036;-81
2022/01/31 07:32:08;;;;;;;21.55;3.30;;;;;;;3.13;100.00;100849.53;5032052;28;20060;-80
2022/01/31 07:34:33;;;;;;;24.15;4.07;;;;;;;3.15;100.00;100852.16;5033557;28;20104;-80
2022/01/31 07:36:58;;;;;;;18.80;4.20;;;;;;;3.15;100.00;100854.72;5049074;28;20108;-81
2022/01/31 07:39:24;;;;;;;20.98;3.63;;;;;;;3.12;100.00;100854.69;5035384;28;20033;-80
2022/01/31 07:41:49;;;;;;;24.80;4.15;;;;;;;3.17;100.00;100856.47;5035313;28;20247;-80
2022/01/31 07:44:15;;;;;;;34.38;5.18;;;;;;;3.21;100.00;100867.66;5051126;28;20519;-80
2022/01/31 07:46:41;;;;;;;23.15;3.67;;;;;;;3.21;100.00;100888.25;5053421;28;20083;-80
2022/01/31 07:49:07;;;;;;;25.60;4.82;;;;;;;3.19;100.00;100885.66;5040817;28;20037;-80
2022/01/31 07:51:35;;;;;;;28.80;5.13;;;;;;;3.16;100.00;100879.63;5045280;28;20025;-80
2022/01/31 07:54:00;;;;;;;26.10;5.13;;;;;;;3.21;100.00;100898.56;5049552;28;20033;-80
2022/01/31 07:56:25;;;;;;;18.95;4.30;;;;;;;3.19;100.00;100885.66;5038749;28;20382;-80
2022/01/31 07:58:51;;;;;;;35.05;5.72;;;;;;;3.22;100.00;100897.72;5040445;28;20076;-80
2022/01/31 08:01:16;;;;;;;30.55;5.95;;;;;;;3.22;100.00;100880.53;5044179;28;20025;-80
2022/01/31 08:03:42;;;;;;;21.98;4.75;;;;;;;3.22;100.00;100892.56;5040284;28;20411;-80
2022/01/31 08:06:07;;;;;;;25.65;4.80;;;;;;;3.19;100.00;100884.81;5041163;28;20033;-80
2022/01/31 08:08:34;;;;;;;32.92;4.70;;;;;;;3.23;100.00;100866.78;5049330;28;20029;-81
2022/01/31 08:11:01;;;;;;;27.20;4.68;;;;;;;3.23;100.00;100884.81;5046726;28;20394;-80
2022/01/31 08:13:26;;;;;;;39.13;4.82;;;;;;;3.23;100.00;100889.97;5048501;28;20025;-80
2022/01/31 08:18:33;;;;;;;29.65;4.65;;;;;;;3.23;100.00;100882.25;5042929;28;20029;-81
2022/01/31 08:20:59;;;;;;;35.47;5.10;;;;;;;3.28;100.00;100877.16;5035373;28;20029;-81
2022/01/31 08:23:25;;;;;;;33.60;4.53;;;;;;;3.25;100.00;100880.56;5034241;28;20026;-81
2022/01/31 08:25:51;;;;;;;30.45;4.20;;;;;;;3.31;100.00;100894.34;5035313;28;20036;-81
2022/01/31 08:28:19;;;;;;;33.90;4.47;;;;;;;3.23;100.00;100887.41;5043075;28;20056;-80
2022/01/31 08:30:53;;;;;;;31.08;4.85;;;;;;;3.05;100.00;100871.81;5053558;28;20033;-81
2022/01/31 08:36:24;;;;;;;32.27;5.27;;;;;;;3.34;100.00;100895.22;4935197;29;20047;-81
2022/01/31 08:38:50;;;;;;;38.35;5.65;;;;;;;3.31;100.00;100910.66;4947552;29;20215;-81
2022/01/31 08:41:16;;;;;;;35.20;4.97;;;;;;;3.31;100.00;100909.81;4992820;28;20124;-81
2022/01/31 08:43:42;;;;;;;42.05;5.50;;;;;;;3.31;100.00;100918.41;5046475;28;20776;-80
2022/01/31 08:46:09;;;;;;;35.15;4.93;;;;;;;3.32;100.00;100906.38;5046084;28;20026;-80
2022/01/31 08:48:34;;;;;;;28.70;4.72;;;;;;;3.34;100.00;100904.69;5034337;28;20069;-80
2022/01/31 08:51:01;;;;;;;35.97;4.53;;;;;;;3.34;100.00;100909.84;5044677;28;20076;-81
2022/01/31 08:53:26;;;;;;;33.60;4.38;;;;;;;3.36;100.00;100908.13;5047019;28;20014;-81
2022/01/31 08:55:54;;;;;;;36.58;5.35;;;;;;;3.36;100.00;100897.81;5047667;28;20087;-81
2022/01/31 08:58:21;;;;;;;28.05;4.22;;;;;;;3.35;100.00;100904.69;5051694;28;20109;-81
2022/01/31 09:00:50;;;;;;;31.17;5.60;;;;;;;3.36;100.00;100911.53;5041795;28;20024;-81
2022/01/31 09:03:34;;;;;;;32.17;4.90;;;;;;;3.35;100.00;100914.13;5052356;28;20033;-81
2022/01/31 09:06:00;;;;;;;36.90;5.07;;;;;;;3.38;100.00;100912.44;5053708;28;20053;-81
2022/01/31 09:08:25;;;;;;;31.02;4.65;;;;;;;3.39;100.00;100924.47;5045915;28;20053;-81
2022/01/31 09:10:50;;;;;;;37.88;5.68;;;;;;;3.34;100.00;100926.16;5049381;28;20051;-81
2022/01/31 09:13:17;;;;;;;30.17;5.05;;;;;;;3.30;100.00;100919.22;5048780;28;20129;-82
2022/01/31 09:15:43;;;;;;;31.90;4.72;;;;;;;3.35;100.00;100943.34;5054057;28;20025;-82
2022/01/31 09:18:08;;;;;;;23.42;4.70;;;;;;;3.43;100.00;100935.66;5054092;28;20361;-81
2022/01/31 09:20:35;;;;;;;33.55;4.95;;;;;;;3.39;100.00;100928.75;5042824;28;20082;-82
2022/01/31 09:23:02;;;;;;;21.90;5.05;;;;;;;3.43;100.00;100948.53;5045300;28;20108;-82
2022/01/31 09:25:28;;;;;;;27.63;4.72;;;;;;;3.41;100.00;100927.06;5044596;28;20831;-83
2022/01/31 09:27:53;;;;;;;32.10;4.20;;;;;;;3.43;100.00;100922.75;5041665;28;20040;-83
2022/01/31 09:30:21;;;;;;;30.75;5.38;;;;;;;3.42;100.00;100903.84;5040527;28;20082;-82
2022/01/31 09:32:47;;;;;;;29.90;3.88;;;;;;;3.41;100.00;100925.34;5035074;28;20034;-82
2022/01/31 09:35:12;;;;;;;29.77;3.88;;;;;;;3.40;100.00;100928.78;5045223;28;20029;-82
2022/01/31 09:37:38;;;;;;;38.28;5.10;;;;;;;3.47;100.00;100946.00;5052848;28;20040;-82
2022/01/31 09:40:04;;;;;;;36.80;4.72;;;;;;;3.49;100.00;100913.34;5052782;28;21153;-82
2022/01/31 09:42:41;;;;;;;23.88;4.53;;;;;;;3.44;100.00;100930.53;5042098;28;21265;-82
2022/01/31 09:45:16;;;;;;;38.70;5.45;;;;;;;3.52;100.00;100946.88;5053127;28;20037;-82
2022/01/31 09:50:25;;;;;;;37.03;4.50;;;;;;;3.48;100.00;100955.47;5053315;28;20153;-82
2022/01/31 09:52:50;;;;;;;37.30;6.25;;;;;;;3.42;100.00;100981.19;5052992;28;20025;-82
2022/01/31 09:55:16;;;;;;;44.55;6.53;;;;;;;3.42;100.00;100960.56;5051435;28;20021;-82
2022/01/31 09:57:41;;;;;;;37.90;4.97;;;;;;;3.37;100.00;100982.88;5052043;28;20037;-81
2022/01/31 10:00:07;;;;;;;36.17;5.50;;;;;;;3.35;100.00;100971.69;5048808;28;20036;-82
2022/01/31 10:02:33;;;;;;;37.33;6.13;;;;;;;3.36;100.00;100980.28;5047620;28;20029;-83
2022/01/31 10:04:58;;;;;;;44.70;5.97;;;;;;;3.35;100.00;100981.13;5049709;28;20033;-83
2022/01/31 10:07:23;;;;;;;33.55;6.03;;;;;;;3.40;100.00;101011.25;5048911;28;20396;-82
2022/01/31 10:09:50;;;;;;;35.42;4.88;;;;;;;3.39;100.00;100993.19;5052007;28;20025;-83
2022/01/31 10:16:24;;;;;;;33.95;6.28;;;;;;;3.42;100.00;101019.84;5048374;28;20037;-81
2022/01/31 10:17:58;;;;;;;;;;;;;;;3.40;100.00;101016.41;5052881;28;20048;-82
2022/01/31 10:20:34;;;;;;;47.58;5.90;;;;;;;3.40;100.00;101011.25;5052339;28;20368;-81
2022/01/31 10:23:10;;;;;;;44.17;6.18;;;;;;;3.40;100.00;101012.94;5052073;28;20041;-82
2022/01/31 10:25:37;;;;;;;55.78;7.05;;;;;;;3.43;100.00;101039.63;5052084;28;20040;-82
2022/01/31 10:28:10;;;;;;;52.42;7.57;;;;;;;3.38;100.00;101041.28;5052398;28;20112;-82
2022/01/31 10:30:36;;;;;;;43.53;6.90;;;;;;;3.46;100.00;101033.63;5051078;28;20159;-82
2022/01/31 10:33:01;;;;;;;48.08;8.45;;;;;;;3.45;100.00;101043.06;5050541;28;20103;-83
2022/01/31 10:35:31;;;;;;;38.80;6.20;;;;;;;3.42;100.00;101049.91;5051623;28;20367;-82
2022/01/31 10:38:01;;;;;;;43.08;6.93;;;;;;;3.43;100.00;101055.09;5043121;28;20037;-83
2022/01/31 10:43:45;;;;;;;51.58;7.18;;;;;;;3.33;100.00;101034.34;5051192;28;20044;-82
2022/01/31 10:57:20;;;;;;;53.47;7.55;;;;;;;3.37;100.00;101080.81;5048511;28;20033;-81
2022/01/31 10:59:46;;;;;;;45.65;6.25;;;;;;;3.36;100.00;101079.06;5050583;28;20041;-81
2022/01/31 11:02:25;;;;;;;42.50;6.50;;;;;;;3.33;100.00;101088.47;5051622;28;20035;-81
2022/01/31 11:04:52;;;;;;;40.95;6.85;;;;;;;3.31;100.00;101106.50;5048298;28;20140;-82
2022/01/31 11:07:25;;;;;;;42.03;6.35;;;;;;;3.40;100.00;101088.56;5049958;28;20031;-82
2022/01/31 11:09:54;;;;;;;37.65;5.97;;;;;;;3.38;100.00;101082.53;5049913;28;20044;-82
2022/01/31 11:12:23;;;;;;;41.38;6.68;;;;;;;3.39;100.00;101079.09;5031905;28;20385;-82
2022/01/31 11:14:48;;;;;;;43.70;6.43;;;;;;;3.41;100.00;101090.28;5035592;28;20029;-83
2022/01/31 11:17:16;;;;;;;35.80;6.20;;;;;;;3.42;100.00;101096.31;5042708;28;20350;-81
2022/01/31 11:19:44;;;;;;;50.25;6.38;;;;;;;3.37;100.00;101080.81;5030966;28;20037;-82
2022/01/31 11:22:13;;;;;;;52.28;6.72;;;;;;;3.44;100.00;101098.06;5043676;28;20544;-83
2022/01/31 11:24:54;;;;;;;49.63;7.25;;;;;;;3.41;100.00;101103.19;5050764;28;20473;-82
2022/01/31 11:27:23;;;;;;;49.03;7.65;;;;;;;3.44;100.00;101108.34;5049299;28;20021;-81
2022/01/31 11:29:55;;;;;;;44.40;7.22;;;;;;;3.49;100.00;101101.53;5045034;28;20060;-82
2022/01/31 11:32:24;;;;;;;49.58;6.85;;;;;;;3.51;100.00;101102.41;5051185;28;20476;-82
2022/01/31 11:34:50;;;;;;;49.60;6.88;;;;;;;3.53;100.00;101112.72;5050636;28;20021;-82
2022/01/31 11:37:18;;;;;;;39.72;6.22;;;;;;;3.48;100.00;101107.53;5035065;28;20022;-81
2022/01/31 11:39:52;;;;;;;47.28;7.80;;;;;;;3.44;100.00;101121.25;5033110;28;20049;-81
2022/01/31 11:42:20;;;;;;;45.22;7.38;;;;;;;3.43;100.00;101085.13;5046547;28;20033;-81
2022/01/31 11:45:02;;;;;;;40.90;6.35;;;;;;;3.43;100.00;101128.94;5051190;28;20110;-81